Time;durP1;ratioP1;P1;durP2;ratioP2;P2;SDS_P1;SDS_P2;PMS_P1;PMS_P2;Temp;Humidity;BMP_temperature;BMP_pressure;BME280_temperature;BME280_humidity;BME280_pressure;Samples;Min_cycle;Max_cycle;Signal;HPM_P1;HPM_P2
2023/07/13 00:00:26;;;;;;;2.30;2.10;;;16.40;79.60;;;;;;4982822;28;20409;-71
2023/07/13 00:02:55;;;;;;;4.00;2.08;;;16.30;79.90;;;;;;4981787;28;20206;-70
2023/07/13 00:05:22;;;;;;;2.28;1.80;;;16.30;79.70;;;;;;4982163;28;20026;-70
2023/07/13 00:07:49;;;;;;;2.45;1.90;;;16.20;79.80;;;;;;4980936;28;20034;-70
2023/07/13 00:10:16;;;;;;;2.95;1.90;;;16.20;79.80;;;;;;4980853;28;20042;-71
2023/07/13 00:12:42;;;;;;;3.53;2.40;;;16.30;79.80;;;;;;4982324;28;20035;-72
2023/07/13 00:15:16;;;;;;;2.60;1.92;;;16.30;79.80;;;;;;4980026;28;20034;-71
2023/07/13 00:17:45;;;;;;;3.47;2.22;;;16.30;79.40;;;;;;4981949;28;20050;-71
2023/07/13 00:20:12;;;;;;;2.72;2.00;;;16.30;79.40;;;;;;4982231;28;20101;-71
2023/07/13 00:22:38;;;;;;;3.40;2.20;;;16.30;79.30;;;;;;4981808;28;20144;-70
2023/07/13 00:25:04;;;;;;;1.70;1.60;;;16.30;79.40;;;;;;4980984;28;20034;-72
2023/07/13 00:27:31;;;;;;;4.95;2.35;;;16.30;79.30;;;;;;4982060;28;20044;-70
2023/07/13 00:29:58;;;;;;;8.43;2.88;;;16.30;79.40;;;;;;4996444;28;20043;-70
2023/07/13 00:32:27;;;;;;;4.60;2.38;;;16.30;79.70;;;;;;4981430;28;20037;-70
2023/07/13 00:34:53;;;;;;;2.35;1.90;;;16.30;79.80;;;;;;4979532;28;20541;-70
2023/07/13 00:37:19;;;;;;;2.05;1.80;;;16.30;80.00;;;;;;4981562;28;20074;-72
2023/07/13 00:39:45;;;;;;;2.08;1.77;;;16.40;80.00;;;;;;4980896;28;20045;-71
2023/07/13 00:42:11;;;;;;;1.90;1.70;;;16.40;80.00;;;;;;4981669;28;20394;-71
2023/07/13 00:44:39;;;;;;;2.08;1.60;;;16.40;79.50;;;;;;4981209;28;20039;-71
2023/07/13 00:47:05;;;;;;;1.70;1.60;;;16.40;79.80;;;;;;4981972;28;20025;-70
2023/07/13 00:49:33;;;;;;;2.35;1.90;;;16.40;79.60;;;;;;4977351;28;20066;-70
2023/07/13 00:52:06;;;;;;;3.10;1.98;;;16.40;80.40;;;;;;4981014;28;20167;-70
2023/07/13 00:54:43;;;;;;;3.55;1.70;;;16.40;79.60;;;;;;4981795;28;20124;-70
2023/07/13 00:57:15;;;;;;;2.85;2.35;;;16.40;79.60;;;;;;4981618;28;20069;-70
2023/07/13 00:59:45;;;;;;;2.28;1.80;;;16.40;79.80;;;;;;4982752;28;20031;-70
2023/07/13 01:02:11;;;;;;;3.85;2.15;;;16.40;79.80;;;;;;4980752;28;20038;-70
2023/07/13 01:04:38;;;;;;;2.78;1.58;;;16.40;79.60;;;;;;4981600;28;20043;-70
2023/07/13 01:07:06;;;;;;;1.75;1.63;;;16.40;79.80;;;;;;4998110;28;20085;-71
2023/07/13 01:09:32;;;;;;;3.72;2.00;;;16.40;79.80;;;;;;4978310;28;20057;-71
2023/07/13 01:11:59;;;;;;;2.15;1.90;;;16.40;80.40;;;;;;4976664;28;20501;-70
2023/07/13 01:14:25;;;;;;;2.20;2.00;;;16.40;80.00;;;;;;4978708;28;20080;-72
2023/07/13 01:16:52;;;;;;;1.77;1.67;;;16.50;80.20;;;;;;4980607;28;20031;-70
2023/07/13 01:19:25;;;;;;;2.13;1.80;;;16.40;80.20;;;;;;4979869;28;20521;-70
2023/07/13 01:21:53;;;;;;;2.15;1.95;;;16.40;80.30;;;;;;4999517;28;20038;-70
2023/07/13 01:24:18;;;;;;;3.95;2.05;;;16.40;80.10;;;;;;4999631;28;20062;-71
2023/07/13 01:26:44;;;;;;;3.47;1.85;;;16.40;80.20;;;;;;4984056;28;20152;-71
2023/07/13 01:29:10;;;;;;;2.67;2.10;;;16.40;80.20;;;;;;4998453;28;20212;-71
2023/07/13 01:31:38;;;;;;;1.77;1.67;;;16.40;80.60;;;;;;4986250;28;20097;-71
2023/07/13 01:34:04;;;;;;;2.05;1.85;;;16.40;80.60;;;;;;4984103;28;20027;-70
2023/07/13 01:36:31;;;;;;;3.25;2.08;;;16.40;80.70;;;;;;4983524;28;20520;-71
2023/07/13 01:38:57;;;;;;;1.92;1.73;;;16.40;80.80;;;;;;4982570;28;20513;-69
2023/07/13 01:41:23;;;;;;;2.67;1.85;;;16.40;80.90;;;;;;4982243;28;20180;-72
2023/07/13 01:43:49;;;;;;;2.58;1.90;;;16.40;80.80;;;;;;5000262;28;20519;-71
2023/07/13 01:46:14;;;;;;;1.98;1.80;;;16.40;81.10;;;;;;4997424;28;20197;-70
2023/07/13 01:48:40;;;;;;;2.95;1.70;;;16.40;81.20;;;;;;4982145;28;20039;-71
2023/07/13 01:51:06;;;;;;;3.65;1.90;;;16.40;81.10;;;;;;4982927;28;20184;-71
2023/07/13 01:53:32;;;;;;;2.58;1.90;;;16.40;81.10;;;;;;4982075;28;20045;-71
2023/07/13 01:55:58;;;;;;;2.55;1.98;;;16.40;81.30;;;;;;4984268;28;20454;-71
2023/07/13 01:58:24;;;;;;;3.78;2.00;;;16.40;81.60;;;;;;4982649;28;20564;-70
2023/07/13 02:00:51;;;;;;;2.47;2.00;;;16.40;81.30;;;;;;4981682;28;20181;-71
2023/07/13 02:03:18;;;;;;;3.95;2.08;;;16.40;81.60;;;;;;4984145;28;20180;-72
2023/07/13 02:05:44;;;;;;;2.78;2.15;;;16.40;81.50;;;;;;4984227;28;20489;-71
2023/07/13 02:08:11;;;;;;;1.80;1.70;;;16.40;81.70;;;;;;4981477;28;20041;-73
2023/07/13 02:10:37;;;;;;;2.65;1.80;;;16.40;81.50;;;;;;4996883;28;20050;-71
2023/07/13 02:13:06;;;;;;;2.67;2.40;;;16.40;81.30;;;;;;4982237;28;20034;-71
2023/07/13 02:15:32;;;;;;;3.22;2.45;;;16.30;81.40;;;;;;4982654;28;20038;-71
2023/07/13 02:17:58;;;;;;;5.20;2.47;;;16.40;81.50;;;;;;4982659;28;20050;-72
2023/07/13 02:20:26;;;;;;;5.07;2.70;;;16.40;81.90;;;;;;4983288;28;20093;-72
2023/07/13 02:22:52;;;;;;;2.22;2.03;;;16.40;82.40;;;;;;4987717;28;20042;-72
2023/07/13 02:25:20;;;;;;;2.50;2.22;;;16.30;82.00;;;;;;4991299;28;20386;-72
2023/07/13 02:27:48;;;;;;;3.30;2.30;;;16.40;81.80;;;;;;4989822;28;20690;-73
2023/07/13 02:30:16;;;;;;;2.30;2.08;;;16.40;81.80;;;;;;4986732;28;20092;-73
2023/07/13 02:32:44;;;;;;;2.25;2.00;;;16.30;81.80;;;;;;4982653;28;20073;-73
2023/07/13 02:35:10;;;;;;;3.85;1.80;;;16.40;82.00;;;;;;4984074;28;20038;-71
2023/07/13 02:37:37;;;;;;;3.08;2.20;;;16.30;81.90;;;;;;4982236;28;20064;-71
2023/07/13 02:40:08;;;;;;;2.63;2.40;;;16.40;82.20;;;;;;4982565;28;20070;-72
2023/07/13 02:42:35;;;;;;;4.10;2.15;;;16.40;81.70;;;;;;4984972;28;20034;-71
2023/07/13 02:45:01;;;;;;;2.70;2.10;;;16.40;82.00;;;;;;4983076;28;20181;-71
2023/07/13 02:47:28;;;;;;;3.08;1.98;;;16.40;81.70;;;;;;4982413;28;20026;-71
2023/07/13 02:49:54;;;;;;;2.80;2.22;;;16.40;81.80;;;;;;4999337;28;20042;-72
2023/07/13 02:52:20;;;;;;;3.75;2.38;;;16.40;81.90;;;;;;4981652;28;20125;-71
2023/07/13 02:54:46;;;;;;;5.03;2.15;;;16.40;81.80;;;;;;4984106;28;20038;-71
2023/07/13 02:57:12;;;;;;;2.80;2.10;;;16.40;82.00;;;;;;4984205;28;20046;-72
2023/07/13 02:59:38;;;;;;;5.22;2.33;;;16.40;82.20;;;;;;4966242;28;20030;-71
2023/07/13 03:02:04;;;;;;;2.92;2.13;;;16.40;82.40;;;;;;4983105;28;20037;-72
2023/07/13 03:04:30;;;;;;;4.50;2.10;;;16.50;82.40;;;;;;4979494;28;20035;-72
2023/07/13 03:06:57;;;;;;;4.88;2.47;;;16.40;82.50;;;;;;4981802;28;20035;-71
2023/07/13 03:09:27;;;;;;;3.25;2.10;;;16.40;82.40;;;;;;4981538;28;20049;-71
2023/07/13 03:11:55;;;;;;;2.20;1.98;;;16.40;82.40;;;;;;4980543;28;20092;-77
2023/07/13 03:14:26;;;;;;;2.28;2.08;;;16.50;82.30;;;;;;4982240;28;20160;-76
2023/07/13 03:16:52;;;;;;;2.95;1.90;;;16.50;82.50;;;;;;4998071;28;20034;-76
2023/07/13 03:19:21;;;;;;;2.83;2.17;;;16.50;82.40;;;;;;4982069;28;20042;-76
2023/07/13 03:21:50;;;;;;;2.88;2.42;;;16.50;82.30;;;;;;4980379;28;20466;-75
2023/07/13 03:24:16;;;;;;;2.78;2.35;;;16.50;82.40;;;;;;4980196;28;20117;-75
2023/07/13 03:26:43;;;;;;;3.38;2.42;;;16.50;82.20;;;;;;4997231;28;20533;-75
2023/07/13 03:29:09;;;;;;;3.22;2.30;;;16.50;82.20;;;;;;4983246;28;20081;-75
2023/07/13 03:31:38;;;;;;;2.45;2.25;;;16.50;82.20;;;;;;4996410;28;20030;-76
2023/07/13 03:34:04;;;;;;;3.55;2.22;;;16.60;82.00;;;;;;4980039;28;20034;-74
2023/07/13 03:36:32;;;;;;;3.22;2.20;;;16.60;82.00;;;;;;4998702;28;20062;-74
2023/07/13 03:39:03;;;;;;;5.43;3.00;;;16.60;81.80;;;;;;4980236;28;20500;-76
2023/07/13 03:41:52;;;;;;;4.03;2.80;;;16.60;81.90;;;;;;4983661;28;20047;-76
2023/07/13 03:44:19;;;;;;;3.03;2.20;;;16.60;81.80;;;;;;4998848;28;20027;-75
2023/07/13 03:46:48;;;;;;;2.58;2.35;;;16.60;81.70;;;;;;4995316;28;20097;-75
2023/07/13 03:49:14;;;;;;;2.67;2.30;;;16.60;81.80;;;;;;4979996;28;20093;-75
2023/07/13 03:51:40;;;;;;;2.70;2.20;;;16.60;81.70;;;;;;4997397;28;20038;-75
2023/07/13 03:54:06;;;;;;;2.60;2.15;;;16.60;81.80;;;;;;4981793;28;20549;-74
2023/07/13 03:56:32;;;;;;;5.13;2.35;;;16.60;81.80;;;;;;4980846;28;20042;-75
2023/07/13 03:59:00;;;;;;;2.65;2.38;;;16.60;81.80;;;;;;4979487;28;20097;-76
2023/07/13 04:01:26;;;;;;;4.20;2.40;;;16.60;81.70;;;;;;4995221;28;20351;-74
2023/07/13 04:03:53;;;;;;;3.15;2.15;;;16.60;81.70;;;;;;4981790;28;20041;-74
2023/07/13 04:06:26;;;;;;;3.95;2.20;;;16.60;81.80;;;;;;4980464;28;20086;-78
2023/07/13 04:08:54;;;;;;;3.65;2.60;;;16.60;81.90;;;;;;4981025;28;20148;-76
2023/07/13 04:11:22;;;;;;;2.83;2.25;;;16.60;82.10;;;;;;4981714;28;20118;-72
2023/07/13 04:13:49;;;;;;;3.38;2.30;;;16.60;82.20;;;;;;4982286;28;20062;-71
2023/07/13 04:16:17;;;;;;;3.33;2.05;;;16.70;82.30;;;;;;4982348;28;20389;-71
2023/07/13 04:18:43;;;;;;;4.75;2.38;;;16.70;82.20;;;;;;4979568;28;20453;-71
2023/07/13 04:21:09;;;;;;;5.45;2.28;;;16.70;82.10;;;;;;4981909;28;20034;-71
2023/07/13 04:23:38;;;;;;;3.00;2.65;;;16.70;82.30;;;;;;4995309;28;20100;-71
2023/07/13 04:26:04;;;;;;;2.10;1.90;;;16.70;82.80;;;;;;4980701;28;20034;-70
2023/07/13 04:28:31;;;;;;;4.03;2.30;;;16.80;82.50;;;;;;4967834;28;20411;-69
2023/07/13 04:30:57;;;;;;;3.75;2.10;;;16.70;82.40;;;;;;4978906;28;20038;-70
2023/07/13 04:33:23;;;;;;;6.00;2.53;;;16.80;82.50;;;;;;4980143;28;20054;-72
2023/07/13 04:35:54;;;;;;;3.80;2.30;;;16.80;82.40;;;;;;4981235;28;20654;-72
2023/07/13 04:38:20;;;;;;;2.42;2.22;;;16.80;82.80;;;;;;4979600;28;20034;-71
2023/07/13 04:40:47;;;;;;;3.35;2.17;;;16.80;83.10;;;;;;4980746;28;20031;-71
2023/07/13 04:43:13;;;;;;;2.42;2.22;;;16.80;82.30;;;;;;4979128;28;20049;-70
2023/07/13 04:45:38;;;;;;;5.20;2.10;;;16.80;82.30;;;;;;4981058;28;20038;-71
2023/07/13 04:48:05;;;;;;;3.63;2.20;;;16.90;82.10;;;;;;4980423;28;20057;-71
2023/07/13 04:50:31;;;;;;;2.78;1.95;;;16.90;81.70;;;;;;4979555;28;20090;-70
2023/07/13 04:52:58;;;;;;;2.60;2.35;;;16.90;81.70;;;;;;4980322;28;20058;-70
2023/07/13 04:55:23;;;;;;;3.40;2.40;;;16.90;81.70;;;;;;4978799;28;20089;-70
2023/07/13 04:57:49;;;;;;;4.75;2.15;;;16.90;81.80;;;;;;4981677;28;20030;-71
2023/07/13 05:00:16;;;;;;;5.68;2.50;;;16.90;82.30;;;;;;4979383;28;20080;-71
2023/07/13 05:02:45;;;;;;;2.55;2.35;;;16.90;82.30;;;;;;4981090;28;20031;-70
2023/07/13 05:05:11;;;;;;;3.97;2.35;;;16.90;82.50;;;;;;4980939;28;20738;-70
2023/07/13 05:07:37;;;;;;;2.55;2.20;;;17.00;82.70;;;;;;4979615;28;20041;-69
2023/07/13 05:10:04;;;;;;;5.07;2.45;;;17.00;82.50;;;;;;4978862;28;20039;-70
2023/07/13 05:12:30;;;;;;;3.67;2.63;;;17.00;82.60;;;;;;4979513;28;20030;-71
2023/07/13 05:14:56;;;;;;;4.53;2.22;;;17.00;83.10;;;;;;4980882;28;20457;-71
2023/07/13 05:17:22;;;;;;;2.85;2.17;;;17.00;83.30;;;;;;4980408;28;20050;-71
2023/07/13 05:19:48;;;;;;;3.63;2.35;;;17.00;83.10;;;;;;4979610;28;20039;-70
2023/07/13 05:22:14;;;;;;;3.45;2.35;;;17.00;83.30;;;;;;4980756;28;20034;-70
2023/07/13 05:24:40;;;;;;;7.78;2.80;;;17.10;83.40;;;;;;4978904;28;20035;-71
2023/07/13 05:27:06;;;;;;;3.88;2.38;;;17.10;83.50;;;;;;4980624;28;20053;-71
2023/07/13 05:29:32;;;;;;;2.15;1.98;;;17.10;83.30;;;;;;4977579;28;20504;-71
2023/07/13 05:31:58;;;;;;;3.03;2.05;;;17.20;83.00;;;;;;4980577;28;20065;-71
2023/07/13 05:34:24;;;;;;;6.50;2.60;;;17.20;82.90;;;;;;4980632;28;20042;-71
2023/07/13 05:36:50;;;;;;;3.53;2.42;;;17.30;82.90;;;;;;4979515;28;20041;-70
2023/07/13 05:39:16;;;;;;;3.60;2.60;;;17.30;82.30;;;;;;4979127;28;20492;-71
2023/07/13 05:41:42;;;;;;;3.97;3.00;;;17.40;82.10;;;;;;4979746;28;20035;-71
2023/07/13 05:44:08;;;;;;;4.50;2.60;;;17.50;81.90;;;;;;4980759;28;20528;-73
2023/07/13 05:46:34;;;;;;;2.85;2.55;;;17.50;81.40;;;;;;4979228;28;20125;-71
2023/07/13 05:49:00;;;;;;;5.15;2.65;;;17.60;81.10;;;;;;4979049;28;20034;-72
2023/07/13 05:51:26;;;;;;;3.38;2.60;;;17.60;81.30;;;;;;4978703;28;20072;-71
2023/07/13 05:53:52;;;;;;;3.42;2.67;;;17.70;81.50;;;;;;4978592;28;20038;-70
2023/07/13 05:56:18;;;;;;;4.00;2.55;;;17.70;80.80;;;;;;4978926;28;20039;-72
2023/07/13 05:58:44;;;;;;;6.05;2.47;;;17.80;80.50;;;;;;4980465;28;20061;-70
2023/07/13 06:01:12;;;;;;;7.05;2.45;;;17.80;80.20;;;;;;4979152;28;20513;-70
2023/07/13 06:03:38;;;;;;;3.55;2.50;;;17.90;80.20;;;;;;4978179;28;20543;-69
2023/07/13 06:06:05;;;;;;;3.92;2.55;;;17.90;79.70;;;;;;4979629;28;20046;-69
2023/07/13 06:08:32;;;;;;;3.97;2.20;;;18.00;79.40;;;;;;4981574;28;20170;-69
2023/07/13 06:11:14;;;;;;;4.20;2.47;;;18.00;79.00;;;;;;4984093;28;20038;-71
2023/07/13 06:13:40;;;;;;;3.08;2.47;;;18.00;78.70;;;;;;4982490;28;20026;-71
2023/07/13 06:16:06;;;;;;;6.60;2.80;;;18.00;78.50;;;;;;4984190;28;20038;-71
2023/07/13 06:18:34;;;;;;;3.85;2.05;;;18.00;78.50;;;;;;4982398;28;20050;-71
2023/07/13 06:21:00;;;;;;;5.60;2.20;;;18.10;78.10;;;;;;4982872;28;20525;-71
2023/07/13 06:23:26;;;;;;;5.05;2.63;;;18.00;77.90;;;;;;4982289;28;20026;-70
2023/07/13 06:25:52;;;;;;;4.25;2.30;;;18.10;77.20;;;;;;4982792;28;20128;-72
2023/07/13 06:28:19;;;;;;;6.10;2.45;;;18.10;77.20;;;;;;4983847;28;20480;-70
2023/07/13 06:30:45;;;;;;;3.58;2.22;;;18.10;76.90;;;;;;4998744;28;20423;-71
2023/07/13 06:33:11;;;;;;;3.67;2.28;;;18.10;76.70;;;;;;4983953;28;20050;-70
2023/07/13 06:35:37;;;;;;;3.40;2.20;;;18.10;76.80;;;;;;4980955;28;20472;-70
2023/07/13 06:38:02;;;;;;;3.13;2.40;;;18.20;76.30;;;;;;4985346;28;20473;-71
2023/07/13 06:40:30;;;;;;;4.07;2.45;;;18.20;76.40;;;;;;4981286;28;20445;-70
2023/07/13 06:42:56;;;;;;;4.28;2.10;;;18.20;75.50;;;;;;4983147;28;20057;-72
2023/07/13 06:45:22;;;;;;;2.35;2.10;;;18.20;75.20;;;;;;4981499;28;20409;-69
2023/07/13 06:47:49;;;;;;;3.90;2.10;;;18.20;75.00;;;;;;4981865;28;20404;-70
2023/07/13 06:50:15;;;;;;;3.63;2.00;;;18.20;74.50;;;;;;4981439;28;20413;-69
2023/07/13 06:52:41;;;;;;;4.28;2.50;;;18.30;74.50;;;;;;4981598;28;20031;-71
2023/07/13 06:55:07;;;;;;;3.60;2.13;;;18.30;74.60;;;;;;4982198;28;20053;-69
2023/07/13 06:57:34;;;;;;;3.85;2.10;;;18.30;74.50;;;;;;4982360;28;20073;-71
2023/07/13 07:00:00;;;;;;;2.15;1.90;;;18.40;74.00;;;;;;4981511;28;20039;-69
2023/07/13 07:02:26;;;;;;;3.72;2.22;;;18.40;73.80;;;;;;4982690;28;20089;-71
2023/07/13 07:04:52;;;;;;;3.42;2.20;;;18.50;73.30;;;;;;4982196;28;20037;-70
2023/07/13 07:07:17;;;;;;;4.03;2.10;;;18.60;73.00;;;;;;4982042;28;20046;-76
2023/07/13 07:09:43;;;;;;;2.22;2.03;;;18.50;73.30;;;;;;4981204;28;20135;-80
2023/07/13 07:12:09;;;;;;;2.55;1.80;;;18.50;73.50;;;;;;4981516;28;20571;-80
2023/07/13 07:14:35;;;;;;;2.22;1.90;;;18.50;73.90;;;;;;4980949;28;20089;-70
2023/07/13 07:17:01;;;;;;;4.55;2.60;;;18.50;74.30;;;;;;4980353;28;20038;-70
2023/07/13 07:19:29;;;;;;;2.72;2.33;;;18.50;74.70;;;;;;4982195;28;20042;-68
2023/07/13 07:21:55;;;;;;;7.00;2.38;;;18.50;75.10;;;;;;4982505;28;20178;-70
2023/07/13 07:24:21;;;;;;;7.78;2.50;;;18.40;75.40;;;;;;4980259;28;20536;-70
2023/07/13 07:26:47;;;;;;;5.35;2.33;;;18.40;75.90;;;;;;4996042;28;20133;-70
2023/07/13 07:29:13;;;;;;;4.30;2.10;;;18.30;75.70;;;;;;4981300;28;20062;-69
2023/07/13 07:31:39;;;;;;;6.65;2.15;;;18.30;76.10;;;;;;4982841;28;20408;-69
2023/07/13 07:34:06;;;;;;;6.32;2.55;;;18.30;76.60;;;;;;4979968;28;20054;-70
2023/07/13 07:36:32;;;;;;;5.70;2.42;;;18.30;77.00;;;;;;4980224;28;20049;-68
2023/07/13 07:38:58;;;;;;;3.92;2.15;;;18.20;76.60;;;;;;4981275;28;20030;-69
2023/07/13 07:41:24;;;;;;;3.58;2.63;;;18.30;76.90;;;;;;4981049;28;20062;-69
2023/07/13 07:43:50;;;;;;;8.05;2.83;;;18.20;76.50;;;;;;4980517;28;20041;-70
2023/07/13 07:46:16;;;;;;;4.45;2.20;;;18.20;77.10;;;;;;4981115;28;20034;-70
2023/07/13 07:48:42;;;;;;;6.10;2.40;;;18.20;78.30;;;;;;4982146;28;20030;-73
2023/07/13 07:51:07;;;;;;;4.50;2.78;;;18.20;79.10;;;;;;4982431;28;20046;-72
2023/07/13 07:53:33;;;;;;;4.53;2.70;;;18.10;79.90;;;;;;4980671;28;20037;-73
2023/07/13 07:55:59;;;;;;;6.15;2.92;;;18.10;79.90;;;;;;4997884;28;20492;-71
2023/07/13 07:58:25;;;;;;;10.55;3.00;;;18.20;78.90;;;;;;4981258;28;20135;-72
2023/07/13 08:00:51;;;;;;;6.50;2.63;;;18.10;78.90;;;;;;4981715;28;20138;-72
2023/07/13 08:03:17;;;;;;;7.90;2.80;;;18.20;79.10;;;;;;4981721;28;20104;-72
2023/07/13 08:05:43;;;;;;;7.63;3.00;;;18.20;79.60;;;;;;4981196;28;20125;-71
2023/07/13 08:08:09;;;;;;;6.38;2.90;;;18.10;80.00;;;;;;4996151;28;20129;-71
2023/07/13 08:10:37;;;;;;;7.55;3.10;;;18.20;79.80;;;;;;4981343;28;20485;-71
2023/07/13 08:13:03;;;;;;;6.32;2.65;;;18.20;79.60;;;;;;4977853;28;20449;-71
2023/07/13 08:15:28;;;;;;;3.70;2.50;;;18.20;79.80;;;;;;4980550;28;20030;-71
2023/07/13 08:17:55;;;;;;;4.40;2.70;;;18.20;78.80;;;;;;4978847;28;20042;-71
2023/07/13 08:20:21;;;;;;;4.20;2.35;;;18.10;78.60;;;;;;4981715;28;20042;-71
2023/07/13 08:22:46;;;;;;;3.72;2.20;;;18.10;78.80;;;;;;4981883;28;20497;-71
2023/07/13 08:25:12;;;;;;;5.32;3.08;;;18.10;79.10;;;;;;4979159;28;20124;-72
2023/07/13 08:27:38;;;;;;;19.40;6.68;;;18.10;79.70;;;;;;4980789;28;20034;-71
2023/07/13 08:30:05;;;;;;;15.68;5.00;;;18.10;80.90;;;;;;4977068;28;20134;-70
2023/07/13 08:32:31;;;;;;;7.05;3.10;;;18.10;80.80;;;;;;4996725;28;20034;-71
2023/07/13 08:34:57;;;;;;;7.15;3.00;;;18.10;80.20;;;;;;4981947;28;20041;-70
2023/07/13 08:37:23;;;;;;;7.88;2.92;;;18.10;80.60;;;;;;4982208;28;20031;-72
2023/07/13 08:39:49;;;;;;;6.25;2.72;;;18.10;80.70;;;;;;4978920;28;20632;-70
2023/07/13 08:42:18;;;;;;;5.53;2.90;;;18.10;80.60;;;;;;4978582;28;20057;-71
2023/07/13 08:45:21;;;;;;;6.95;3.00;;;18.10;80.70;;;;;;4980795;28;20030;-70
2023/07/13 08:48:07;;;;;;;6.10;3.58;;;18.10;81.40;;;;;;4979766;28;20128;-72
2023/07/13 08:50:48;;;;;;;7.97;3.90;;;18.20;81.60;;;;;;4977725;28;20038;-70
2023/07/13 08:53:16;;;;;;;8.73;3.97;;;18.20;82.00;;;;;;4978976;28;20027;-71
2023/07/13 08:55:42;;;;;;;5.10;3.88;;;18.20;82.20;;;;;;4982067;28;20038;-69
2023/07/13 08:58:14;;;;;;;5.28;4.13;;;18.10;82.10;;;;;;4979557;28;20034;-69
2023/07/13 09:00:49;;;;;;;6.40;3.95;;;18.10;82.30;;;;;;4980776;28;20026;-71
2023/07/13 09:03:42;;;;;;;6.72;3.80;;;18.10;82.20;;;;;;4979716;28;20108;-69
2023/07/13 09:06:11;;;;;;;5.82;3.90;;;18.20;82.10;;;;;;4979348;28;20039;-69
2023/07/13 09:08:46;;;;;;;6.55;4.45;;;18.20;82.00;;;;;;4978491;28;20040;-70
2023/07/13 09:11:32;;;;;;;9.27;4.50;;;18.20;82.20;;;;;;4980190;28;20034;-69
2023/07/13 09:14:06;;;;;;;5.07;3.65;;;18.20;82.40;;;;;;4978992;28;20415;-70
2023/07/13 09:16:34;;;;;;;6.05;3.70;;;18.20;81.80;;;;;;4980395;28;21797;-69
2023/07/13 09:19:05;;;;;;;6.72;3.78;;;18.20;80.70;;;;;;4980243;28;20053;-69
2023/07/13 09:21:37;;;;;;;6.78;3.38;;;18.20;82.20;;;;;;4980000;28;20038;-68
2023/07/13 09:24:28;;;;;;;6.55;3.60;;;18.20;82.50;;;;;;4979268;28;20031;-69
2023/07/13 09:26:55;;;;;;;7.47;3.70;;;18.20;82.60;;;;;;4980731;28;20034;-69
2023/07/13 09:29:32;;;;;;;4.47;3.20;;;18.30;82.80;;;;;;4980849;28;20034;-68
2023/07/13 09:32:03;;;;;;;4.75;3.40;;;18.30;83.10;;;;;;4982184;28;20085;-71
2023/07/13 09:34:32;;;;;;;4.85;3.10;;;18.20;83.20;;;;;;4978012;28;20464;-70
2023/07/13 09:36:58;;;;;;;6.55;3.35;;;18.30;83.50;;;;;;4980118;28;20034;-69
2023/07/13 09:39:29;;;;;;;4.78;2.85;;;18.30;84.10;;;;;;4978118;28;20077;-69
2023/07/13 09:42:01;;;;;;;5.22;3.10;;;18.30;84.00;;;;;;4982038;28;20077;-70
2023/07/13 09:44:33;;;;;;;5.97;2.85;;;18.20;83.60;;;;;;4982624;28;20046;-69
2023/07/13 09:46:59;;;;;;;5.70;3.05;;;18.30;83.70;;;;;;4981918;28;20032;-71
2023/07/13 09:49:36;;;;;;;3.72;2.95;;;18.20;83.90;;;;;;4980395;28;20069;-69
2023/07/13 09:52:03;;;;;;;4.95;2.88;;;18.20;84.40;;;;;;4982661;28;20039;-69
2023/07/13 09:54:33;;;;;;;6.13;2.97;;;18.20;84.40;;;;;;4984018;28;20413;-69
2023/07/13 09:57:00;;;;;;;4.90;2.40;;;18.20;84.40;;;;;;4965235;28;20042;-69
2023/07/13 09:59:36;;;;;;;4.05;2.70;;;18.10;84.40;;;;;;4983469;28;20548;-68
2023/07/13 10:02:22;;;;;;;4.07;2.70;;;18.10;84.80;;;;;;4984076;28;20046;-69
2023/07/13 10:04:54;;;;;;;;;;;18.10;85.20;;;;;;4983839;28;20049;-69
2023/07/13 10:07:23;;;;;;;3.20;2.55;;;18.10;85.60;;;;;;4982818;28;20077;-69
2023/07/13 10:09:54;;;;;;;5.45;2.83;;;18.10;85.40;;;;;;4981727;28;20034;-69
2023/07/13 10:12:20;;;;;;;6.47;3.30;;;18.20;85.40;;;;;;4984209;28;20662;-69
2023/07/13 10:14:48;;;;;;;6.10;2.78;;;18.10;85.30;;;;;;4998699;28;20440;-70
2023/07/13 10:17:15;;;;;;;6.47;3.30;;;18.20;85.00;;;;;;4983933;28;20523;-69
2023/07/13 10:19:44;;;;;;;5.00;2.90;;;18.20;84.20;;;;;;4982876;28;20042;-69
2023/07/13 10:22:25;;;;;;;4.38;2.67;;;18.20;83.90;;;;;;4981328;28;20045;-76
2023/07/13 10:24:52;;;;;;;3.55;2.88;;;18.20;84.10;;;;;;4983899;28;20034;-74
2023/07/13 10:27:20;;;;;;;7.45;2.92;;;18.20;83.80;;;;;;4982314;28;20045;-73
2023/07/13 10:30:12;;;;;;;4.60;2.75;;;18.20;84.00;;;;;;4990039;28;20054;-74
2023/07/13 10:32:38;;;;;;;6.07;3.50;;;18.10;84.50;;;;;;4991054;28;20045;-74
2023/07/13 10:35:07;;;;;;;7.22;3.70;;;18.10;84.80;;;;;;4988448;28;20057;-73
2023/07/13 10:38:02;;;;;;;9.07;3.45;;;18.10;85.00;;;;;;4992788;28;20093;-72
2023/07/13 10:40:34;;;;;;;6.65;3.35;;;18.10;85.40;;;;;;4987083;28;20038;-75
2023/07/13 10:43:04;;;;;;;4.82;3.40;;;18.10;85.90;;;;;;4990836;28;20065;-75
2023/07/13 10:45:36;;;;;;;4.70;3.40;;;18.10;86.10;;;;;;4991157;28;20034;-75
2023/07/13 10:48:03;;;;;;;5.30;3.05;;;18.00;85.70;;;;;;4990493;28;20088;-75
2023/07/13 10:50:31;;;;;;;4.38;3.33;;;18.00;85.30;;;;;;4989241;28;20034;-75
2023/07/13 10:53:36;;;;;;;6.68;3.10;;;18.00;85.50;;;;;;4990119;28;20026;-75
2023/07/13 10:56:13;;;;;;;6.65;3.20;;;18.00;85.90;;;;;;4988430;28;20085;-75
2023/07/13 10:58:42;;;;;;;3.35;2.47;;;18.00;85.60;;;;;;4991440;28;20054;-78
2023/07/13 11:01:11;;;;;;;5.57;3.10;;;18.00;85.60;;;;;;4990775;28;20582;-75
2023/07/13 11:03:43;;;;;;;5.88;2.92;;;17.90;85.80;;;;;;4991260;28;20038;-88
2023/07/13 11:06:22;;;;;;;4.05;2.67;;;17.90;85.90;;;;;;5006305;28;20043;-86
2023/07/13 11:08:51;;;;;;;3.75;2.83;;;17.90;86.30;;;;;;4974183;28;20054;-87
2023/07/13 11:11:38;;;;;;;4.40;2.90;;;17.90;86.00;;;;;;4982754;28;20125;-84
2023/07/13 11:14:35;;;;;;;6.75;3.00;;;17.90;86.00;;;;;;4989533;28;20460;-84
2023/07/13 11:17:32;;;;;;;5.35;3.33;;;17.80;86.40;;;;;;4947950;29;20035;-84
2023/07/13 11:20:13;;;;;;;5.40;3.10;;;17.80;86.60;;;;;;4930197;29;20051;-86
2023/07/13 11:22:49;;;;;;;5.35;2.78;;;17.80;86.80;;;;;;4949288;29;20039;-81
2023/07/13 11:25:26;;;;;;;6.47;3.05;;;17.80;86.50;;;;;;4950267;28;20074;-82
2023/07/13 11:28:04;;;;;;;4.82;2.90;;;17.80;86.00;;;;;;4947850;29;20043;-85
2023/07/13 11:30:29;;;;;;;5.47;3.10;;;17.80;86.40;;;;;;4949327;28;20461;-80
2023/07/13 11:33:23;;;;;;;3.17;2.60;;;17.70;86.30;;;;;;4948466;28;20042;-85
2023/07/13 11:36:05;;;;;;;4.82;3.05;;;17.70;86.00;;;;;;4944118;29;20055;-88
2023/07/13 11:38:42;;;;;;;4.32;3.42;;;17.70;86.00;;;;;;4943140;28;20482;-88
2023/07/13 11:41:38;;;;;;;6.53;3.22;;;17.70;86.10;;;;;;4951899;29;20490;-89
2023/07/13 11:44:16;;;;;;;4.90;2.97;;;17.60;86.60;;;;;;4944142;29;20059;-83
2023/07/13 11:46:47;;;;;;;5.28;3.25;;;17.60;86.60;;;;;;4947985;28;20043;-88
2023/07/13 11:49:18;;;;;;;5.85;3.08;;;17.60;87.10;;;;;;4933857;29;20039;-85
2023/07/13 11:51:45;;;;;;;7.07;3.42;;;17.60;86.90;;;;;;4933411;29;20031;-84
2023/07/13 11:54:43;;;;;;;7.28;3.10;;;17.50;87.00;;;;;;4976949;28;20417;-80
2023/07/13 11:57:22;;;;;;;5.28;2.78;;;17.50;87.60;;;;;;4984760;28;20038;-78
2023/07/13 11:59:51;;;;;;;7.18;3.45;;;17.50;88.50;;;;;;4982170;28;20039;-80
2023/07/13 12:02:29;;;;;;;5.25;3.75;;;17.50;88.70;;;;;;4983234;28;20097;-84
2023/07/13 12:04:56;;;;;;;6.88;3.38;;;17.50;88.70;;;;;;4979496;28;20047;-81
2023/07/13 12:07:23;;;;;;;5.80;3.22;;;17.40;89.00;;;;;;4979607;28;20101;-83
2023/07/13 12:09:50;;;;;;;4.90;3.03;;;17.40;89.40;;;;;;4980833;28;20038;-81
2023/07/13 12:12:29;;;;;;;7.50;3.40;;;17.40;89.60;;;;;;4981994;28;20471;-74
2023/07/13 12:14:55;;;;;;;7.10;3.53;;;17.40;90.00;;;;;;4979317;28;20094;-83
2023/07/13 12:17:25;;;;;;;5.97;3.00;;;17.40;90.00;;;;;;4981357;28;20047;-81
2023/07/13 12:19:52;;;;;;;6.38;3.78;;;17.40;90.00;;;;;;4980989;28;20280;-85
2023/07/13 12:22:20;;;;;;;4.72;3.80;;;17.40;90.30;;;;;;4980258;28;20041;-84
2023/07/13 12:24:47;;;;;;;6.53;3.83;;;17.40;90.50;;;;;;4979483;28;20044;-77
2023/07/13 12:27:23;;;;;;;6.70;3.95;;;17.40;90.40;;;;;;4980038;28;20046;-76
2023/07/13 12:30:22;;;;;;;7.03;3.92;;;17.40;90.50;;;;;;4980386;28;20153;-77
2023/07/13 12:33:01;;;;;;;7.07;3.78;;;17.40;90.60;;;;;;4980156;28;20066;-75
2023/07/13 12:35:30;;;;;;;7.80;3.67;;;17.40;90.80;;;;;;4980092;28;20065;-78
2023/07/13 12:38:00;;;;;;;5.47;3.50;;;17.40;90.90;;;;;;4980964;28;20122;-77
2023/07/13 12:40:33;;;;;;;4.57;3.42;;;17.30;90.70;;;;;;4980000;28;20062;-68
2023/07/13 12:43:04;;;;;;;8.13;4.07;;;17.40;90.80;;;;;;4980065;28;20036;-70
2023/07/13 12:45:30;;;;;;;8.38;3.97;;;17.30;90.70;;;;;;4982303;28;20030;-69
2023/07/13 12:48:15;;;;;;;10.20;4.32;;;17.40;90.70;;;;;;4980870;28;20031;-71
2023/07/13 12:50:49;;;;;;;7.55;4.05;;;17.40;90.50;;;;;;4981824;28;20700;-69
2023/07/13 12:53:28;;;;;;;10.25;4.32;;;17.40;90.60;;;;;;4981343;28;20034;-69
2023/07/13 12:56:01;;;;;;;8.57;4.57;;;17.40;90.60;;;;;;4981853;28;20471;-69
2023/07/13 12:58:41;;;;;;;8.82;4.35;;;17.40;90.70;;;;;;4994282;28;20505;-69